createdAt,value
2018-07-21T18:55:08.374Z,26.10
2018-07-21T18:57:37.368Z,26.10
2018-07-21T19:00:06.301Z,26.00
2018-07-21T19:02:35.106Z,25.90
2018-07-21T19:05:04.050Z,25.80
2018-07-21T19:07:34.706Z,25.70
2018-07-21T19:10:04.015Z,25.60
2018-07-21T19:12:37.938Z,25.50
2018-07-21T19:15:07.750Z,25.50
2018-07-21T19:17:36.609Z,25.50
2018-07-21T19:20:11.096Z,25.50
2018-07-21T19:22:39.974Z,25.50
2018-07-21T19:25:14.109Z,25.40
2018-07-21T19:27:42.921Z,25.40
2018-07-21T19:30:11.750Z,25.40
2018-07-21T19:32:46.211Z,25.30
2018-07-21T19:35:15.025Z,25.30
2018-07-21T19:37:47.721Z,25.20
2018-07-21T19:40:18.467Z,25.20
2018-07-21T19:45:46.661Z,25.10
2018-07-21T19:48:15.421Z,25.00
2018-07-21T19:50:45.187Z,24.90
2018-07-21T19:53:14.396Z,24.90
2018-07-21T19:55:43.172Z,24.80
2018-07-21T19:58:11.975Z,24.80
2018-07-21T20:00:41.221Z,24.80
2018-07-21T20:03:10.035Z,24.80
2018-07-21T20:05:38.812Z,24.70
2018-07-21T20:08:10.756Z,24.60
2018-07-21T20:10:39.547Z,24.60
2018-07-21T20:13:08.763Z,24.50
2018-07-21T20:15:37.572Z,24.50
2018-07-21T20:18:06.424Z,24.40
2018-07-21T20:20:35.236Z,24.30
2018-07-21T20:23:04.380Z,24.30
2018-07-21T20:25:33.185Z,24.20
2018-07-21T20:28:02.078Z,24.20
2018-07-21T20:30:30.968Z,24.20
2018-07-21T20:32:59.895Z,24.10
2018-07-21T20:35:28.791Z,24.00
2018-07-21T20:37:57.942Z,24.00
2018-07-21T20:40:26.734Z,24.00
2018-07-21T20:42:55.550Z,23.90
2018-07-21T20:45:24.541Z,23.80
2018-07-21T20:47:53.362Z,23.80
2018-07-21T20:52:50.875Z,23.80
2018-07-21T20:55:19.657Z,23.70
2018-07-21T20:57:48.481Z,23.70
2018-07-21T21:00:17.719Z,23.70
2018-07-21T21:02:46.470Z,23.60
2018-07-21T21:05:15.277Z,23.60
2018-07-21T21:07:44.115Z,23.50
2018-07-21T21:10:12.932Z,23.50
2018-07-21T21:12:41.731Z,23.40
2018-07-21T21:15:11.021Z,23.40
2018-07-21T21:17:39.799Z,23.40
2018-07-21T21:20:08.613Z,23.40
2018-07-21T21:22:37.599Z,23.40
2018-07-21T21:25:06.707Z,23.40
2018-07-21T21:27:35.534Z,23.30
2018-07-21T21:30:04.401Z,23.30
2018-07-21T21:32:33.184Z,23.30
2018-07-21T21:35:01.997Z,23.30
2018-07-21T21:37:30.868Z,23.30
2018-07-21T21:39:59.670Z,23.30
2018-07-21T21:42:28.526Z,23.20
2018-07-21T21:44:57.296Z,23.30
2018-07-21T21:47:26.117Z,23.20
2018-07-21T21:49:55.082Z,23.20
2018-07-21T21:52:23.878Z,23.20
2018-07-21T21:54:52.866Z,23.20
2018-07-21T21:59:50.186Z,23.20
2018-07-21T22:02:19.034Z,23.20
2018-07-21T22:04:47.913Z,23.10
2018-07-21T22:07:16.634Z,23.10
2018-07-21T22:09:45.429Z,23.00
2018-07-21T22:12:14.589Z,23.00
2018-07-21T22:14:43.361Z,22.90
2018-07-21T22:17:12.178Z,22.80
2018-07-21T22:19:41.550Z,22.90
2018-07-21T22:22:10.347Z,22.80
2018-07-21T22:24:39.172Z,22.80
2018-07-21T22:27:08.228Z,22.80
2018-07-21T22:29:37.031Z,22.80
2018-07-21T22:32:05.887Z,22.70
2018-07-21T22:34:34.729Z,22.70
2018-07-21T22:37:03.999Z,22.70
2018-07-21T22:39:32.804Z,22.70
2018-07-21T22:42:01.622Z,22.70
2018-07-21T22:44:30.430Z,22.70
2018-07-21T22:46:59.227Z,22.80
2018-07-21T22:49:28.048Z,22.80
2018-07-21T22:51:56.858Z,22.80
2018-07-21T22:54:25.662Z,22.80
2018-07-21T22:56:54.537Z,22.80
2018-07-21T22:59:23.406Z,22.80
2018-07-21T23:01:52.188Z,22.70
2018-07-21T23:04:21.009Z,22.70
2018-07-21T23:06:49.825Z,22.60
2018-07-21T23:09:18.602Z,22.50
2018-07-21T23:11:47.413Z,22.50
2018-07-21T23:14:16.207Z,22.50
2018-07-21T23:16:45.036Z,22.50
2018-07-21T23:19:14.070Z,22.50
2018-07-21T23:21:42.861Z,22.50
2018-07-21T23:24:11.666Z,22.50
2018-07-21T23:26:40.520Z,22.40
2018-07-21T23:29:09.375Z,22.40
2018-07-21T23:31:38.189Z,22.40
2018-07-21T23:34:07.054Z,22.40
2018-07-21T23:36:35.866Z,22.40
2018-07-21T23:39:07.425Z,22.40
2018-07-21T23:41:36.253Z,22.40
2018-07-21T23:44:05.076Z,22.40
2018-07-21T23:46:33.889Z,22.40
2018-07-21T23:49:02.779Z,22.40
2018-07-21T23:51:31.577Z,22.40
2018-07-21T23:54:00.435Z,22.40
2018-07-21T23:56:29.432Z,22.40
2018-07-21T23:58:58.234Z,22.40
